San Jon, NM (88411)

7:43 PM MDT on August 29, 2016 (GMT -0600)
Tucumcari Municipal | | Change Station

Elev 4065 ft 35.18 °N, 103.60 °W | Updated 50 minutes ago

Partly Cloudy
Partly Cloudy
72 °F
Feels Like 72 °F
N
9
Wind Variable Wind from East

Today
High -- | Low -- °F
--% Chance of Precip.
Yesterday
High -- | Low -- °F
Precip. -- in
Pressure 30.08 in
Visibility 10.0 miles
Clouds Few 8500 ft
Dew Point 58 °F
Humidity 61%
Rainfall 0.00 in
Snow Depth Not available.
6:24 AM 7:23 PM
Waning Crescent, 6% visible
METAR KTCC 300053Z AUTO 09008KT 10SM FEW085 22/14 A3022 RMK AO2 SLP185 T02220144
Pressure 30.08 in
Visibility 10.0 miles
Clouds Few 8500 ft
Dew Point 58 °F
Humidity 61%
Rainfall 0.00 in
Snow Depth Not available.
6:24 AM 7:23 PM
Waning Crescent, 6% visible
METAR KTCC 300053Z AUTO 09008KT 10SM FEW085 22/14 A3022 RMK AO2 SLP185 T02220144

10-Day Weather Forecast

Almanac

Astronomy

Aug. 29, 2016 Rise Set
Actual Time
Civil Twilight
Nautical Twilight
Astronomical Twilight
Moon
Length of Visible Light
Length of Day
Tomorrow will be .
, % of the Moon is Illuminated

Today's Extremes

State Highs State Lows

Community

WunderPhotos

Upload Photos

1,935,715 photos uploaded!

WunderBlog® & News

Nearby

Air Quality

  Air Quality AQ Index Pollutant
Not available.

Snow Depth

Station Depth Elevation

Earthquake Activity

City Distance Mag. Time & Date
Minimum magnitude displayed is 2.5.

Coastal Water Temperatures

Place Temperature

Stations

Nearby Weather Stations

Station Location Temp. Windchill Dew Point Humidity Wind Precip. Elev Updated Type
                   

Watches & Warnings

There are currently no watches in effect.